sensor_id;sensor_type;location;lat;lon;timestamp;temperature;humidity
33865;DHT22;20159;51.072;13.526;2023-06-24T00:01:05;19.60;98.20
33865;DHT22;20159;51.072;13.526;2023-06-24T00:03:31;17.80;97.70
33865;DHT22;20159;51.072;13.526;2023-06-24T00:05:57;18.00;97.80
33865;DHT22;20159;51.072;13.526;2023-06-24T00:08:22;17.90;97.70
33865;DHT22;20159;51.072;13.526;2023-06-24T00:10:48;17.50;97.70
33865;DHT22;20159;51.072;13.526;2023-06-24T00:13:16;18.00;97.80
33865;DHT22;20159;51.072;13.526;2023-06-24T00:15:41;18.00;97.90
33865;DHT22;20159;51.072;13.526;2023-06-24T00:18:09;19.50;98.30
33865;DHT22;20159;51.072;13.526;2023-06-24T00:20:34;18.00;98.00
33865;DHT22;20159;51.072;13.526;2023-06-24T00:23:00;18.00;98.00
33865;DHT22;20159;51.072;13.526;2023-06-24T00:25:26;18.00;98.10
33865;DHT22;20159;51.072;13.526;2023-06-24T00:27:51;18.00;98.10
33865;DHT22;20159;51.072;13.526;2023-06-24T00:30:17;18.60;98.30
33865;DHT22;20159;51.072;13.526;2023-06-24T00:32:42;18.00;98.10
33865;DHT22;20159;51.072;13.526;2023-06-24T00:35:09;18.10;98.20
33865;DHT22;20159;51.072;13.526;2023-06-24T00:37:36;18.00;98.10
33865;DHT22;20159;51.072;13.526;2023-06-24T00:40:01;18.10;98.20
33865;DHT22;20159;51.072;13.526;2023-06-24T00:42:28;18.10;98.20
33865;DHT22;20159;51.072;13.526;2023-06-24T00:44:54;17.70;98.30
33865;DHT22;20159;51.072;13.526;2023-06-24T00:47:20;17.80;98.20
33865;DHT22;20159;51.072;13.526;2023-06-24T00:49:45;17.70;98.10
33865;DHT22;20159;51.072;13.526;2023-06-24T00:52:12;19.20;98.60
33865;DHT22;20159;51.072;13.526;2023-06-24T00:54:42;20.60;98.80
33865;DHT22;20159;51.072;13.526;2023-06-24T00:57:08;18.10;98.20
33865;DHT22;20159;51.072;13.526;2023-06-24T00:59:33;18.10;98.20
33865;DHT22;20159;51.072;13.526;2023-06-24T01:01:59;18.10;98.20
33865;DHT22;20159;51.072;13.526;2023-06-24T01:04:30;18.10;98.30
33865;DHT22;20159;51.072;13.526;2023-06-24T01:06:57;15.80;97.70
33865;DHT22;20159;51.072;13.526;2023-06-24T01:09:22;18.10;98.30
33865;DHT22;20159;51.072;13.526;2023-06-24T01:11:48;18.10;98.30
33865;DHT22;20159;51.072;13.526;2023-06-24T01:14:14;17.70;98.40
33865;DHT22;20159;51.072;13.526;2023-06-24T01:16:51;18.00;98.30
33865;DHT22;20159;51.072;13.526;2023-06-24T01:28:04;18.20;98.70
33865;DHT22;20159;51.072;13.526;2023-06-24T01:33:11;18.20;98.70
33865;DHT22;20159;51.072;13.526;2023-06-24T01:35:41;18.20;98.60
33865;DHT22;20159;51.072;13.526;2023-06-24T01:38:17;18.20;98.70
33865;DHT22;20159;51.072;13.526;2023-06-24T01:40:46;18.20;98.60
33865;DHT22;20159;51.072;13.526;2023-06-24T01:43:13;18.10;98.50
33865;DHT22;20159;51.072;13.526;2023-06-24T01:45:51;18.20;98.60
33865;DHT22;20159;51.072;13.526;2023-06-24T01:48:28;18.30;98.60
33865;DHT22;20159;51.072;13.526;2023-06-24T01:51:04;18.30;98.80
33865;DHT22;20159;51.072;13.526;2023-06-24T01:53:34;18.30;98.80
33865;DHT22;20159;51.072;13.526;2023-06-24T01:56:03;18.30;98.60
33865;DHT22;20159;51.072;13.526;2023-06-24T01:58:31;18.30;98.60
33865;DHT22;20159;51.072;13.526;2023-06-24T02:00:59;18.30;98.60
33865;DHT22;20159;51.072;13.526;2023-06-24T02:03:26;18.30;98.60
33865;DHT22;20159;51.072;13.526;2023-06-24T02:05:53;18.30;98.60
33865;DHT22;20159;51.072;13.526;2023-06-24T02:08:21;18.30;98.60
33865;DHT22;20159;51.072;13.526;2023-06-24T02:10:50;21.00;99.20
33865;DHT22;20159;51.072;13.526;2023-06-24T02:13:16;18.30;98.60
33865;DHT22;20159;51.072;13.526;2023-06-24T02:15:43;18.30;98.60
33865;DHT22;20159;51.072;13.526;2023-06-24T02:18:09;18.40;98.70
33865;DHT22;20159;51.072;13.526;2023-06-24T02:20:37;18.40;98.60
33865;DHT22;20159;51.072;13.526;2023-06-24T02:23:06;18.30;98.60
33865;DHT22;20159;51.072;13.526;2023-06-24T02:25:33;18.20;98.50
33865;DHT22;20159;51.072;13.526;2023-06-24T02:27:59;18.30;98.50
33865;DHT22;20159;51.072;13.526;2023-06-24T02:30:25;18.00;98.40
33865;DHT22;20159;51.072;13.526;2023-06-24T02:32:51;18.40;98.40
33865;DHT22;20159;51.072;13.526;2023-06-24T02:35:17;18.40;98.40
33865;DHT22;20159;51.072;13.526;2023-06-24T02:37:43;18.30;98.40
33865;DHT22;20159;51.072;13.526;2023-06-24T02:40:09;18.30;98.30
33865;DHT22;20159;51.072;13.526;2023-06-24T02:42:35;18.40;98.40
33865;DHT22;20159;51.072;13.526;2023-06-24T02:45:02;21.20;99.00
33865;DHT22;20159;51.072;13.526;2023-06-24T02:47:29;18.30;98.30
33865;DHT22;20159;51.072;13.526;2023-06-24T02:49:56;20.10;98.80
33865;DHT22;20159;51.072;13.526;2023-06-24T02:52:24;17.90;98.20
33865;DHT22;20159;51.072;13.526;2023-06-24T02:54:55;18.20;98.20
33865;DHT22;20159;51.072;13.526;2023-06-24T02:57:21;18.20;98.10
33865;DHT22;20159;51.072;13.526;2023-06-24T02:59:47;18.30;98.30
33865;DHT22;20159;51.072;13.526;2023-06-24T03:02:13;18.20;98.00
33865;DHT22;20159;51.072;13.526;2023-06-24T03:04:39;18.20;98.00
33865;DHT22;20159;51.072;13.526;2023-06-24T03:07:05;18.10;98.00
33865;DHT22;20159;51.072;13.526;2023-06-24T03:09:34;18.20;98.00
33865;DHT22;20159;51.072;13.526;2023-06-24T03:12:00;20.10;98.50
33865;DHT22;20159;51.072;13.526;2023-06-24T03:14:25;18.50;98.20
33865;DHT22;20159;51.072;13.526;2023-06-24T03:16:51;20.40;98.60
33865;DHT22;20159;51.072;13.526;2023-06-24T03:19:16;17.60;97.90
33865;DHT22;20159;51.072;13.526;2023-06-24T03:21:42;19.30;98.40
33865;DHT22;20159;51.072;13.526;2023-06-24T03:24:08;18.00;98.00
33865;DHT22;20159;51.072;13.526;2023-06-24T03:26:38;17.60;97.90
33865;DHT22;20159;51.072;13.526;2023-06-24T03:29:05;17.90;98.00
33865;DHT22;20159;51.072;13.526;2023-06-24T03:31:32;17.90;98.00
33865;DHT22;20159;51.072;13.526;2023-06-24T03:33:58;17.50;97.90
33865;DHT22;20159;51.072;13.526;2023-06-24T03:36:24;17.90;98.10
33865;DHT22;20159;51.072;13.526;2023-06-24T03:38:50;19.80;98.60
33865;DHT22;20159;51.072;13.526;2023-06-24T03:41:15;17.60;98.20
33865;DHT22;20159;51.072;13.526;2023-06-24T03:43:41;17.50;98.30
33865;DHT22;20159;51.072;13.526;2023-06-24T03:46:07;17.80;98.30
33865;DHT22;20159;51.072;13.526;2023-06-24T03:48:35;17.80;98.30
33865;DHT22;20159;51.072;13.526;2023-06-24T03:51:00;17.80;98.30
33865;DHT22;20159;51.072;13.526;2023-06-24T03:53:26;18.20;98.60
33865;DHT22;20159;51.072;13.526;2023-06-24T03:55:51;17.70;98.60
33865;DHT22;20159;51.072;13.526;2023-06-24T03:58:17;18.20;98.70
33865;DHT22;20159;51.072;13.526;2023-06-24T04:00:43;17.90;98.60
33865;DHT22;20159;51.072;13.526;2023-06-24T04:03:10;17.90;98.80
33865;DHT22;20159;51.072;13.526;2023-06-24T04:05:35;17.90;98.70
33865;DHT22;20159;51.072;13.526;2023-06-24T04:08:01;19.90;99.20
33865;DHT22;20159;51.072;13.526;2023-06-24T04:10:31;17.80;98.70
33865;DHT22;20159;51.072;13.526;2023-06-24T04:12:56;17.90;98.70
33865;DHT22;20159;51.072;13.526;2023-06-24T04:15:22;17.90;98.70
33865;DHT22;20159;51.072;13.526;2023-06-24T04:17:47;20.30;99.30
33865;DHT22;20159;51.072;13.526;2023-06-24T04:20:13;17.90;98.90
33865;DHT22;20159;51.072;13.526;2023-06-24T04:22:41;20.50;99.60
33865;DHT22;20159;51.072;13.526;2023-06-24T04:25:07;20.80;99.60
33865;DHT22;20159;51.072;13.526;2023-06-24T04:27:35;18.20;98.90
33865;DHT22;20159;51.072;13.526;2023-06-24T04:30:01;18.30;98.90
33865;DHT22;20159;51.072;13.526;2023-06-24T04:32:27;16.60;98.50
33865;DHT22;20159;51.072;13.526;2023-06-24T04:34:52;18.30;98.90
33865;DHT22;20159;51.072;13.526;2023-06-24T04:37:18;18.20;98.80
33865;DHT22;20159;51.072;13.526;2023-06-24T04:39:44;19.40;99.10
33865;DHT22;20159;51.072;13.526;2023-06-24T04:42:09;18.50;98.90
33865;DHT22;20159;51.072;13.526;2023-06-24T04:44:36;18.60;98.80
33865;DHT22;20159;51.072;13.526;2023-06-24T04:47:02;18.30;98.60
33865;DHT22;20159;51.072;13.526;2023-06-24T04:49:28;18.60;98.60
33865;DHT22;20159;51.072;13.526;2023-06-24T04:51:53;18.30;98.50
33865;DHT22;20159;51.072;13.526;2023-06-24T04:54:19;19.30;98.60
33865;DHT22;20159;51.072;13.526;2023-06-24T04:56:44;18.00;98.40
33865;DHT22;20159;51.072;13.526;2023-06-24T04:59:10;18.50;98.30
33865;DHT22;20159;51.072;13.526;2023-06-24T05:01:36;18.40;98.20
33865;DHT22;20159;51.072;13.526;2023-06-24T05:04:02;21.40;99.00
33865;DHT22;20159;51.072;13.526;2023-06-24T05:06:28;18.80;98.40
33865;DHT22;20159;51.072;13.526;2023-06-24T05:08:53;18.90;98.40
33865;DHT22;20159;51.072;13.526;2023-06-24T05:11:19;18.90;98.30
33865;DHT22;20159;51.072;13.526;2023-06-24T05:13:44;18.30;98.10
33865;DHT22;20159;51.072;13.526;2023-06-24T05:16:10;19.90;98.70
33865;DHT22;20159;51.072;13.526;2023-06-24T05:18:35;21.60;99.10
33865;DHT22;20159;51.072;13.526;2023-06-24T05:21:01;19.10;98.30
33865;DHT22;20159;51.072;13.526;2023-06-24T05:23:27;19.10;98.20
33865;DHT22;20159;51.072;13.526;2023-06-24T05:25:52;19.70;98.30
33865;DHT22;20159;51.072;13.526;2023-06-24T05:28:18;19.20;98.00
33865;DHT22;20159;51.072;13.526;2023-06-24T05:30:45;19.20;98.00
33865;DHT22;20159;51.072;13.526;2023-06-24T05:33:10;20.30;98.20
33865;DHT22;20159;51.072;13.526;2023-06-24T05:35:36;19.20;97.70
33865;DHT22;20159;51.072;13.526;2023-06-24T05:38:05;19.10;97.60
33865;DHT22;20159;51.072;13.526;2023-06-24T05:40:30;19.20;97.80
33865;DHT22;20159;51.072;13.526;2023-06-24T05:42:56;19.20;97.40
33865;DHT22;20159;51.072;13.526;2023-06-24T05:45:21;19.40;97.60
33865;DHT22;20159;51.072;13.526;2023-06-24T05:47:47;19.20;97.40
33865;DHT22;20159;51.072;13.526;2023-06-24T05:50:12;19.20;97.20
33865;DHT22;20159;51.072;13.526;2023-06-24T05:52:38;19.10;97.10
33865;DHT22;20159;51.072;13.526;2023-06-24T05:55:03;19.20;97.10
33865;DHT22;20159;51.072;13.526;2023-06-24T05:57:29;19.20;97.10
33865;DHT22;20159;51.072;13.526;2023-06-24T05:59:54;18.70;97.00
33865;DHT22;20159;51.072;13.526;2023-06-24T06:02:20;21.50;97.50
33865;DHT22;20159;51.072;13.526;2023-06-24T06:04:47;19.20;96.90
33865;DHT22;20159;51.072;13.526;2023-06-24T06:07:12;19.20;96.90
33865;DHT22;20159;51.072;13.526;2023-06-24T06:09:38;19.20;96.80
33865;DHT22;20159;51.072;13.526;2023-06-24T06:12:04;19.20;96.80
33865;DHT22;20159;51.072;13.526;2023-06-24T06:14:29;19.20;96.70
33865;DHT22;20159;51.072;13.526;2023-06-24T06:16:55;19.20;96.80
33865;DHT22;20159;51.072;13.526;2023-06-24T06:19:20;20.90;97.20
33865;DHT22;20159;51.072;13.526;2023-06-24T06:21:46;21.70;97.40
33865;DHT22;20159;51.072;13.526;2023-06-24T06:24:11;19.20;96.80
33865;DHT22;20159;51.072;13.526;2023-06-24T06:26:42;19.20;96.80
33865;DHT22;20159;51.072;13.526;2023-06-24T06:29:08;19.20;96.50
33865;DHT22;20159;51.072;13.526;2023-06-24T06:31:34;19.20;96.80
33865;DHT22;20159;51.072;13.526;2023-06-24T06:33:59;19.20;96.50
33865;DHT22;20159;51.072;13.526;2023-06-24T06:36:25;19.20;96.60
33865;DHT22;20159;51.072;13.526;2023-06-24T06:38:51;19.20;96.50
33865;DHT22;20159;51.072;13.526;2023-06-24T06:41:16;18.80;96.50
33865;DHT22;20159;51.072;13.526;2023-06-24T06:43:43;19.50;96.70
33865;DHT22;20159;51.072;13.526;2023-06-24T06:46:08;19.10;96.80
33865;DHT22;20159;51.072;13.526;2023-06-24T06:48:34;19.40;97.00
33865;DHT22;20159;51.072;13.526;2023-06-24T06:50:59;19.50;96.80
33865;DHT22;20159;51.072;13.526;2023-06-24T06:53:25;19.50;96.90
33865;DHT22;20159;51.072;13.526;2023-06-24T06:55:51;19.70;97.20
33865;DHT22;20159;51.072;13.526;2023-06-24T06:58:16;19.80;97.00
33865;DHT22;20159;51.072;13.526;2023-06-24T07:00:41;19.90;96.90
33865;DHT22;20159;51.072;13.526;2023-06-24T07:03:07;20.50;97.30
33865;DHT22;20159;51.072;13.526;2023-06-24T07:05:32;20.10;97.00
33865;DHT22;20159;51.072;13.526;2023-06-24T07:07:58;22.40;98.10
33865;DHT22;20159;51.072;13.526;2023-06-24T07:10:23;20.30;99.10
33865;DHT22;20159;51.072;13.526;2023-06-24T07:12:49;20.60;99.90
33865;DHT22;20159;51.072;13.526;2023-06-24T07:15:15;21.00;98.70
33865;DHT22;20159;51.072;13.526;2023-06-24T07:17:44;21.40;97.10
33865;DHT22;20159;51.072;13.526;2023-06-24T07:20:10;21.40;95.50
33865;DHT22;20159;51.072;13.526;2023-06-24T07:22:35;21.70;94.70
33865;DHT22;20159;51.072;13.526;2023-06-24T07:25:01;24.00;94.80
33865;DHT22;20159;51.072;13.526;2023-06-24T07:27:26;21.70;93.80
33865;DHT22;20159;51.072;13.526;2023-06-24T07:29:52;22.20;93.40
33865;DHT22;20159;51.072;13.526;2023-06-24T07:32:17;23.00;94.00
33865;DHT22;20159;51.072;13.526;2023-06-24T07:34:43;22.60;94.10
33865;DHT22;20159;51.072;13.526;2023-06-24T07:37:08;21.20;93.60
33865;DHT22;20159;51.072;13.526;2023-06-24T07:39:34;23.20;93.90
33865;DHT22;20159;51.072;13.526;2023-06-24T07:41:59;21.30;93.50
33865;DHT22;20159;51.072;13.526;2023-06-24T07:44:25;21.60;93.40
33865;DHT22;20159;51.072;13.526;2023-06-24T07:46:50;21.80;93.90
33865;DHT22;20159;51.072;13.526;2023-06-24T07:49:17;21.10;94.80
33865;DHT22;20159;51.072;13.526;2023-06-24T07:51:43;24.20;95.60
33865;DHT22;20159;51.072;13.526;2023-06-24T07:54:10;23.30;93.70
33865;DHT22;20159;51.072;13.526;2023-06-24T07:56:36;22.50;93.10
33865;DHT22;20159;51.072;13.526;2023-06-24T07:59:01;24.60;93.60
33865;DHT22;20159;51.072;13.526;2023-06-24T08:01:27;22.40;92.60
33865;DHT22;20159;51.072;13.526;2023-06-24T08:03:53;22.80;92.40
33865;DHT22;20159;51.072;13.526;2023-06-24T08:06:18;23.10;93.10
33865;DHT22;20159;51.072;13.526;2023-06-24T08:08:46;23.40;93.50
33865;DHT22;20159;51.072;13.526;2023-06-24T08:11:12;23.50;92.80
33865;DHT22;20159;51.072;13.526;2023-06-24T08:13:38;23.80;91.00
33865;DHT22;20159;51.072;13.526;2023-06-24T08:16:03;23.90;89.90
33865;DHT22;20159;51.072;13.526;2023-06-24T08:18:29;24.00;89.20
33865;DHT22;20159;51.072;13.526;2023-06-24T08:20:54;24.00;90.10
33865;DHT22;20159;51.072;13.526;2023-06-24T08:23:20;24.00;89.70
33865;DHT22;20159;51.072;13.526;2023-06-24T08:25:46;24.10;87.80
33865;DHT22;20159;51.072;13.526;2023-06-24T08:28:11;24.10;88.10
33865;DHT22;20159;51.072;13.526;2023-06-24T08:30:37;24.20;90.10
33865;DHT22;20159;51.072;13.526;2023-06-24T08:33:02;24.30;89.00
33865;DHT22;20159;51.072;13.526;2023-06-24T08:35:28;24.70;88.70
33865;DHT22;20159;51.072;13.526;2023-06-24T08:37:53;24.80;87.80
33865;DHT22;20159;51.072;13.526;2023-06-24T08:40:19;25.00;88.50
33865;DHT22;20159;51.072;13.526;2023-06-24T08:42:44;25.20;87.20
33865;DHT22;20159;51.072;13.526;2023-06-24T08:45:10;25.50;86.30
33865;DHT22;20159;51.072;13.526;2023-06-24T08:47:36;26.90;85.30
33865;DHT22;20159;51.072;13.526;2023-06-24T08:50:12;25.90;82.40
33865;DHT22;20159;51.072;13.526;2023-06-24T08:52:42;25.90;82.80
33865;DHT22;20159;51.072;13.526;2023-06-24T08:55:13;26.50;81.60
33865;DHT22;20159;51.072;13.526;2023-06-24T08:57:39;26.10;78.90
33865;DHT22;20159;51.072;13.526;2023-06-24T09:00:06;25.90;82.30
33865;DHT22;20159;51.072;13.526;2023-06-24T09:02:35;26.30;81.60
33865;DHT22;20159;51.072;13.526;2023-06-24T09:05:06;26.40;81.50
33865;DHT22;20159;51.072;13.526;2023-06-24T09:07:32;26.50;80.00
33865;DHT22;20159;51.072;13.526;2023-06-24T09:09:57;27.50;78.10
33865;DHT22;20159;51.072;13.526;2023-06-24T09:12:25;26.40;77.30
33865;DHT22;20159;51.072;13.526;2023-06-24T09:14:52;26.50;76.90
33865;DHT22;20159;51.072;13.526;2023-06-24T09:17:18;26.40;78.90
33865;DHT22;20159;51.072;13.526;2023-06-24T09:19:45;28.20;79.30
33865;DHT22;20159;51.072;13.526;2023-06-24T09:22:10;27.30;77.00
33865;DHT22;20159;51.072;13.526;2023-06-24T09:24:43;27.60;77.70
33865;DHT22;20159;51.072;13.526;2023-06-24T09:27:17;26.80;75.50
33865;DHT22;20159;51.072;13.526;2023-06-24T09:29:45;26.80;73.90
33865;DHT22;20159;51.072;13.526;2023-06-24T09:32:12;26.80;75.00
33865;DHT22;20159;51.072;13.526;2023-06-24T09:34:38;26.40;74.30
33865;DHT22;20159;51.072;13.526;2023-06-24T09:37:04;28.50;78.10
33865;DHT22;20159;51.072;13.526;2023-06-24T09:39:36;26.90;73.70
33865;DHT22;20159;51.072;13.526;2023-06-24T09:42:02;27.00;75.30
33865;DHT22;20159;51.072;13.526;2023-06-24T09:44:29;27.10;74.20
33865;DHT22;20159;51.072;13.526;2023-06-24T09:46:56;27.10;74.00
33865;DHT22;20159;51.072;13.526;2023-06-24T09:49:22;27.20;72.50
33865;DHT22;20159;51.072;13.526;2023-06-24T09:51:54;27.20;72.40
33865;DHT22;20159;51.072;13.526;2023-06-24T09:54:21;27.20;72.70
33865;DHT22;20159;51.072;13.526;2023-06-24T09:56:50;27.20;73.50
33865;DHT22;20159;51.072;13.526;2023-06-24T09:59:17;29.00;77.30
33865;DHT22;20159;51.072;13.526;2023-06-24T10:01:45;27.30;72.40
33865;DHT22;20159;51.072;13.526;2023-06-24T10:04:16;29.30;73.60
33865;DHT22;20159;51.072;13.526;2023-06-24T10:06:42;29.00;72.10
33865;DHT22;20159;51.072;13.526;2023-06-24T10:09:08;27.60;72.00
33865;DHT22;20159;51.072;13.526;2023-06-24T10:11:34;27.60;72.30
33865;DHT22;20159;51.072;13.526;2023-06-24T10:13:59;27.70;72.10
33865;DHT22;20159;51.072;13.526;2023-06-24T10:16:25;27.80;70.80
33865;DHT22;20159;51.072;13.526;2023-06-24T10:18:51;29.50;71.60
33865;DHT22;20159;51.072;13.526;2023-06-24T10:21:16;27.60;70.00
33865;DHT22;20159;51.072;13.526;2023-06-24T10:26:26;27.50;69.40
33865;DHT22;20159;51.072;13.526;2023-06-24T10:34:31;28.30;69.70
33865;DHT22;20159;51.072;13.526;2023-06-24T10:37:08;28.00;67.50
33865;DHT22;20159;51.072;13.526;2023-06-24T10:39:57;28.10;69.40
33865;DHT22;20159;51.072;13.526;2023-06-24T10:42:33;28.20;67.70
33865;DHT22;20159;51.072;13.526;2023-06-24T10:47:40;28.20;68.70
33865;DHT22;20159;51.072;13.526;2023-06-24T10:50:08;28.30;69.70
33865;DHT22;20159;51.072;13.526;2023-06-24T10:52:44;28.40;69.70
33865;DHT22;20159;51.072;13.526;2023-06-24T10:55:12;28.40;68.60
33865;DHT22;20159;51.072;13.526;2023-06-24T10:57:38;28.40;67.90
33865;DHT22;20159;51.072;13.526;2023-06-24T11:00:04;28.40;68.30
33865;DHT22;20159;51.072;13.526;2023-06-24T11:02:30;28.50;69.60
33865;DHT22;20159;51.072;13.526;2023-06-24T11:04:57;28.50;68.40
33865;DHT22;20159;51.072;13.526;2023-06-24T11:07:24;28.70;66.40
33865;DHT22;20159;51.072;13.526;2023-06-24T11:09:51;28.60;66.60
33865;DHT22;20159;51.072;13.526;2023-06-24T11:12:17;29.20;65.40
33865;DHT22;20159;51.072;13.526;2023-06-24T11:14:42;28.90;65.20
33865;DHT22;20159;51.072;13.526;2023-06-24T11:17:08;29.00;65.70
33865;DHT22;20159;51.072;13.526;2023-06-24T11:19:34;29.20;65.90
33865;DHT22;20159;51.072;13.526;2023-06-24T11:22:05;29.80;65.30
33865;DHT22;20159;51.072;13.526;2023-06-24T11:24:30;30.10;64.90
33865;DHT22;20159;51.072;13.526;2023-06-24T11:26:56;29.30;64.00
33865;DHT22;20159;51.072;13.526;2023-06-24T11:29:22;29.30;65.70
33865;DHT22;20159;51.072;13.526;2023-06-24T11:31:49;29.30;65.80
33865;DHT22;20159;51.072;13.526;2023-06-24T11:34:15;29.40;65.50
33865;DHT22;20159;51.072;13.526;2023-06-24T11:36:41;30.90;63.60
33865;DHT22;20159;51.072;13.526;2023-06-24T11:39:07;29.60;63.40
33865;DHT22;20159;51.072;13.526;2023-06-24T11:41:32;29.70;64.10
33865;DHT22;20159;51.072;13.526;2023-06-24T11:43:58;30.80;62.90
33865;DHT22;20159;51.072;13.526;2023-06-24T11:46:28;30.00;62.90
33865;DHT22;20159;51.072;13.526;2023-06-24T11:49:05;30.20;61.10
33865;DHT22;20159;51.072;13.526;2023-06-24T11:51:32;30.40;60.80
33865;DHT22;20159;51.072;13.526;2023-06-24T11:54:02;30.40;61.70
33865;DHT22;20159;51.072;13.526;2023-06-24T11:56:41;31.80;61.80
33865;DHT22;20159;51.072;13.526;2023-06-24T11:59:23;30.60;57.70
33865;DHT22;20159;51.072;13.526;2023-06-24T12:01:56;30.60;59.20
33865;DHT22;20159;51.072;13.526;2023-06-24T12:04:28;30.60;60.00
33865;DHT22;20159;51.072;13.526;2023-06-24T12:06:54;31.00;59.20
33865;DHT22;20159;51.072;13.526;2023-06-24T12:09:19;30.60;59.30
33865;DHT22;20159;51.072;13.526;2023-06-24T12:11:45;30.60;58.60
33865;DHT22;20159;51.072;13.526;2023-06-24T12:14:11;30.60;58.60
33865;DHT22;20159;51.072;13.526;2023-06-24T12:16:37;30.60;58.10
33865;DHT22;20159;51.072;13.526;2023-06-24T12:19:03;30.60;58.60
33865;DHT22;20159;51.072;13.526;2023-06-24T12:21:29;30.60;59.00
33865;DHT22;20159;51.072;13.526;2023-06-24T12:23:54;32.60;60.30
33865;DHT22;20159;51.072;13.526;2023-06-24T12:26:20;30.70;58.30
33865;DHT22;20159;51.072;13.526;2023-06-24T12:28:47;30.90;57.80
33865;DHT22;20159;51.072;13.526;2023-06-24T12:31:12;30.90;58.00
33865;DHT22;20159;51.072;13.526;2023-06-24T12:33:38;31.00;57.10
33865;DHT22;20159;51.072;13.526;2023-06-24T12:36:03;31.10;57.60
33865;DHT22;20159;51.072;13.526;2023-06-24T12:38:29;31.20;56.70
33865;DHT22;20159;51.072;13.526;2023-06-24T12:40:55;31.20;57.00
33865;DHT22;20159;51.072;13.526;2023-06-24T12:43:21;32.50;58.40
33865;DHT22;20159;51.072;13.526;2023-06-24T12:45:47;31.30;57.30
33865;DHT22;20159;51.072;13.526;2023-06-24T12:48:13;31.40;56.10
33865;DHT22;20159;51.072;13.526;2023-06-24T12:50:39;31.40;55.30
33865;DHT22;20159;51.072;13.526;2023-06-24T12:53:04;32.10;57.40
33865;DHT22;20159;51.072;13.526;2023-06-24T12:55:30;31.70;56.30
33865;DHT22;20159;51.072;13.526;2023-06-24T12:57:56;32.20;56.30
33865;DHT22;20159;51.072;13.526;2023-06-24T13:00:23;31.70;55.20
33865;DHT22;20159;51.072;13.526;2023-06-24T13:02:49;31.90;54.60
33865;DHT22;20159;51.072;13.526;2023-06-24T13:05:16;32.00;54.90
33865;DHT22;20159;51.072;13.526;2023-06-24T13:07:42;32.00;54.20
33865;DHT22;20159;51.072;13.526;2023-06-24T13:10:09;32.10;54.30
33865;DHT22;20159;51.072;13.526;2023-06-24T13:12:35;32.10;53.50
33865;DHT22;20159;51.072;13.526;2023-06-24T13:15:05;32.20;54.20
33865;DHT22;20159;51.072;13.526;2023-06-24T13:17:31;32.20;53.50
33865;DHT22;20159;51.072;13.526;2023-06-24T13:19:56;33.30;55.20
33865;DHT22;20159;51.072;13.526;2023-06-24T13:22:23;31.80;53.10
33865;DHT22;20159;51.072;13.526;2023-06-24T13:24:48;32.50;52.30
33865;DHT22;20159;51.072;13.526;2023-06-24T13:27:14;32.60;52.70
33865;DHT22;20159;51.072;13.526;2023-06-24T13:29:39;32.90;52.90
33865;DHT22;20159;51.072;13.526;2023-06-24T13:32:05;32.90;53.30
33865;DHT22;20159;51.072;13.526;2023-06-24T13:34:31;32.90;52.60
33865;DHT22;20159;51.072;13.526;2023-06-24T13:36:59;33.00;51.50
33865;DHT22;20159;51.072;13.526;2023-06-24T13:39:25;34.10;53.70
33865;DHT22;20159;51.072;13.526;2023-06-24T13:41:51;35.00;53.90
33865;DHT22;20159;51.072;13.526;2023-06-24T13:44:18;31.60;51.70
33865;DHT22;20159;51.072;13.526;2023-06-24T13:46:43;32.80;52.70
33865;DHT22;20159;51.072;13.526;2023-06-24T13:49:10;34.00;51.90
33865;DHT22;20159;51.072;13.526;2023-06-24T13:51:36;32.20;51.60
33865;DHT22;20159;51.072;13.526;2023-06-24T13:54:01;34.00;53.10
33865;DHT22;20159;51.072;13.526;2023-06-24T13:56:30;33.20;52.20
33865;DHT22;20159;51.072;13.526;2023-06-24T13:58:55;35.20;51.60
33865;DHT22;20159;51.072;13.526;2023-06-24T14:01:22;35.90;52.00
33865;DHT22;20159;51.072;13.526;2023-06-24T14:03:48;34.30;52.10
33865;DHT22;20159;51.072;13.526;2023-06-24T14:06:16;35.60;51.50
33865;DHT22;20159;51.072;13.526;2023-06-24T14:08:44;33.50;49.60
33865;DHT22;20159;51.072;13.526;2023-06-24T14:11:10;35.30;50.90
33865;DHT22;20159;51.072;13.526;2023-06-24T14:13:36;36.00;52.10
33865;DHT22;20159;51.072;13.526;2023-06-24T14:16:02;33.70;51.20
33865;DHT22;20159;51.072;13.526;2023-06-24T14:18:28;33.70;49.70
33865;DHT22;20159;51.072;13.526;2023-06-24T14:20:57;32.70;47.90
33865;DHT22;20159;51.072;13.526;2023-06-24T14:23:23;34.70;49.60
33865;DHT22;20159;51.072;13.526;2023-06-24T14:25:50;33.90;48.60
33865;DHT22;20159;51.072;13.526;2023-06-24T14:28:16;35.10;49.80
33865;DHT22;20159;51.072;13.526;2023-06-24T14:30:41;33.80;49.50
33865;DHT22;20159;51.072;13.526;2023-06-24T14:33:16;34.10;49.80
33865;DHT22;20159;51.072;13.526;2023-06-24T14:35:42;33.80;48.40
33865;DHT22;20159;51.072;13.526;2023-06-24T14:38:07;35.90;49.90
33865;DHT22;20159;51.072;13.526;2023-06-24T14:40:34;35.90;50.00
33865;DHT22;20159;51.072;13.526;2023-06-24T14:43:00;33.90;47.60
33865;DHT22;20159;51.072;13.526;2023-06-24T14:45:25;34.00;48.70
33865;DHT22;20159;51.072;13.526;2023-06-24T14:47:51;34.10;49.20
33865;DHT22;20159;51.072;13.526;2023-06-24T14:50:27;34.10;48.60
33865;DHT22;20159;51.072;13.526;2023-06-24T14:52:53;34.20;49.30
33865;DHT22;20159;51.072;13.526;2023-06-24T14:55:18;36.00;49.90
33865;DHT22;20159;51.072;13.526;2023-06-24T14:57:44;36.50;49.40
33865;DHT22;20159;51.072;13.526;2023-06-24T15:00:10;34.40;48.10
33865;DHT22;20159;51.072;13.526;2023-06-24T15:02:36;34.40;46.90
33865;DHT22;20159;51.072;13.526;2023-06-24T15:05:02;34.40;47.40
33865;DHT22;20159;51.072;13.526;2023-06-24T15:07:28;34.40;47.80
33865;DHT22;20159;51.072;13.526;2023-06-24T15:09:53;34.40;46.90
33865;DHT22;20159;51.072;13.526;2023-06-24T15:12:19;34.40;48.00
33865;DHT22;20159;51.072;13.526;2023-06-24T15:14:44;34.20;47.00
33865;DHT22;20159;51.072;13.526;2023-06-24T15:17:11;34.10;46.90
33865;DHT22;20159;51.072;13.526;2023-06-24T15:19:37;34.50;47.70
33865;DHT22;20159;51.072;13.526;2023-06-24T15:22:02;34.60;48.30
33865;DHT22;20159;51.072;13.526;2023-06-24T15:24:28;34.70;47.10
33865;DHT22;20159;51.072;13.526;2023-06-24T15:26:53;34.70;47.90
33865;DHT22;20159;51.072;13.526;2023-06-24T15:29:19;34.80;46.80
33865;DHT22;20159;51.072;13.526;2023-06-24T15:31:44;34.80;47.00
33865;DHT22;20159;51.072;13.526;2023-06-24T15:34:10;34.90;47.10